This is the latest recevied weather packets stored in our database for station/object NUUKSIO. If no packets are shown the sender has not sent any weather packets the latest 10 day(s).
| Time | Temp. | Humidity | Pressure | Rain* | Wind** | Luminosity | Snow |
|---|---|---|---|---|---|---|---|
| 1777735623 | 18.33° C | 31% | 1008.5 hPa | 0 mm | - | - | - |
| 1777734423 | 18.89° C | 32% | 1008.5 hPa | 0 mm | - | - | - |
| 1777733223 | 18.89° C | 32% | 1008.4 hPa | 0 mm | - | - | - |
| 1777732023 | 19.44° C | 30% | 1008.5 hPa | 0 mm | - | - | - |
| 1777729623 | 20.56° C | 30% | 1008.4 hPa | 0 mm | - | - | - |
| 1777728423 | 21.11° C | 27% | 1008.4 hPa | 0 mm | - | - | - |
| 1777727223 | 22.22° C | 26% | 1008.3 hPa | 0 mm | - | - | - |
| 1777726023 | 22.22° C | 26% | 1008.3 hPa | 0 mm | - | - | - |
| 1777724823 | 22.22° C | 28% | 1008.6 hPa | 0 mm | - | - | - |
| 1777723623 | 21.11° C | 35% | 1008.8 hPa | 0 mm | - | - | - |
| 1777722423 | 21.11° C | 36% | 1008.9 hPa | 0 mm | - | - | - |
| 1777721223 | 21.67° C | 35% | 1009 hPa | 0 mm | - | - | - |
| 1777720023 | 21.67° C | 36% | 1009.1 hPa | 0 mm | - | - | - |
| 1777718823 | 20.56° C | 37% | 1009.3 hPa | 0 mm | - | - | - |
| 1777717622 | 21.11° C | 37% | 1009.4 hPa | 0 mm | - | - | - |
| 1777716422 | 21.11° C | 37% | 1009.6 hPa | 0 mm | - | - | - |
| 1777715222 | 21.11° C | 34% | 1009.7 hPa | 0 mm | - | - | - |
| 1777714022 | 21.11° C | 34% | 1009.8 hPa | 0 mm | - | - | - |
| 1777712822 | 20.56° C | 36% | 1010 hPa | 0 mm | - | - | - |
| 1777711622 | 20° C | 37% | 1010.2 hPa | 0 mm | - | - | - |
| 1777710422 | 18.89° C | 40% | 1010.4 hPa | 0 mm | - | - | - |
| 1777709222 | 18.33° C | 43% | 1010.6 hPa | 0 mm | - | - | - |
| 1777708022 | 17.22° C | 45% | 1010.6 hPa | 0 mm | - | - | - |
| 1777706822 | 16.11° C | 49% | 1010.8 hPa | 0 mm | - | - | - |
| 1777705622 | 15.56° C | 48% | 1010.8 hPa | 0 mm | - | - | - |
* Rain latest hour (hover to see other rain measurements)
** Current wind speed in m/s (hover to see current wind gust speed)